Time;durP1;ratioP1;P1;durP2;ratioP2;P2;SDS_P1;SDS_P2;PMS_P1;PMS_P2;Temp;Humidity;BMP_temperature;BMP_pressure;BME280_temperature;BME280_humidity;BME280_pressure;Samples;Min_cycle;Max_cycle;Signal;HPM_P1;HPM_P2
2024/02/17 00:00:21;;;;;;;18.00;2.50;;;;;;;11.44;61.91;102231.19;5047823;28;20057;-65
2024/02/17 00:02:48;;;;;;;14.80;2.67;;;;;;;11.31;61.98;102237.31;5045089;28;20061;-64
2024/02/17 00:05:16;;;;;;;15.27;2.63;;;;;;;11.07;63.33;102239.84;5047800;28;20060;-65
2024/02/17 00:07:44;;;;;;;12.75;2.45;;;;;;;11.46;62.76;102241.94;5015319;28;20061;-66
2024/02/17 00:10:12;;;;;;;19.80;2.85;;;;;;;11.62;61.27;102249.03;5047301;28;20057;-64
2024/02/17 00:12:40;;;;;;;18.13;3.38;;;;;;;11.75;61.21;102248.47;5047390;28;20063;-65
2024/02/17 00:15:08;;;;;;;21.15;3.03;;;;;;;11.61;61.54;102253.72;5047626;28;20060;-64
2024/02/17 00:17:39;;;;;;;16.58;3.22;;;;;;;11.55;61.07;102251.28;5028777;28;20835;-64
2024/02/17 00:20:07;;;;;;;13.35;2.42;;;;;;;11.81;60.19;102252.84;5045990;28;20045;-66
2024/02/17 00:22:35;;;;;;;11.93;2.47;;;;;;;11.96;60.00;102258.31;5045350;28;20060;-64
2024/02/17 00:25:03;;;;;;;13.85;2.92;;;;;;;11.44;60.76;102261.53;5044779;28;20060;-65
2024/02/17 00:27:31;;;;;;;15.52;2.42;;;;;;;11.53;61.30;102265.38;5047100;28;20057;-65
2024/02/17 00:29:59;;;;;;;7.13;2.00;;;;;;;11.55;62.04;102276.97;5029017;28;20048;-65
2024/02/17 00:32:26;;;;;;;15.57;2.28;;;;;;;11.59;61.26;102271.69;5044914;28;20049;-65
2024/02/17 00:34:53;;;;;;;16.95;2.72;;;;;;;11.51;61.60;102272.25;5064540;28;20067;-64
2024/02/17 00:37:21;;;;;;;12.85;2.20;;;;;;;11.51;61.66;102278.63;5067556;28;20776;-66
2024/02/17 00:39:48;;;;;;;15.85;2.45;;;;;;;11.05;62.49;102280.66;5052907;28;20057;-64
2024/02/17 00:42:16;;;;;;;17.92;2.47;;;;;;;11.37;62.49;102279.50;5042778;28;20049;-64
2024/02/17 00:44:43;;;;;;;12.25;2.30;;;;;;;11.38;61.98;102275.63;5047693;28;20079;-64
2024/02/17 00:47:10;;;;;;;13.25;2.15;;;;;;;11.35;62.18;102277.84;5050487;28;20064;-66
2024/02/17 00:49:37;;;;;;;8.45;1.80;;;;;;;11.46;61.64;102278.63;5061409;28;20056;-65
2024/02/17 00:52:05;;;;;;;11.98;2.90;;;;;;;11.43;61.13;102284.72;5069240;28;20059;-64
2024/02/17 00:54:33;;;;;;;17.30;2.80;;;;;;;11.28;60.08;102288.34;5057320;28;20626;-64
2024/02/17 00:57:00;;;;;;;13.63;2.30;;;;;;;11.39;59.28;102289.16;5049682;28;20053;-65
2024/02/17 00:59:27;;;;;;;13.70;2.30;;;;;;;11.41;59.22;102289.69;5050304;28;20852;-65
2024/02/17 01:01:56;;;;;;;15.45;2.45;;;;;;;11.41;59.50;102283.34;5050842;28;20504;-64
2024/02/17 01:04:24;;;;;;;15.02;2.72;;;;;;;11.48;59.96;102290.22;5065784;28;20155;-65
2024/02/17 01:06:52;;;;;;;11.25;2.28;;;;;;;11.58;58.89;102297.63;5049034;28;20060;-64
2024/02/17 01:09:19;;;;;;;9.85;2.00;;;;;;;11.58;59.38;102292.94;5049609;28;20354;-64
2024/02/17 01:11:46;;;;;;;10.30;2.20;;;;;;;11.38;57.64;102292.19;5032441;28;20729;-64
2024/02/17 01:14:14;;;;;;;16.85;2.95;;;;;;;11.37;58.67;102290.56;5049791;28;20079;-64
2024/02/17 01:16:43;;;;;;;14.95;2.45;;;;;;;11.45;58.26;102295.47;5048511;28;20059;-64
2024/02/17 01:19:11;;;;;;;18.67;2.88;;;;;;;11.33;58.55;102299.38;5031968;28;20069;-64
2024/02/17 01:21:38;;;;;;;12.50;1.85;;;;;;;11.29;59.35;102301.06;5049663;28;20052;-66
2024/02/17 01:24:06;;;;;;;16.05;2.55;;;;;;;11.63;58.79;102298.44;5050014;28;20056;-64
2024/02/17 01:26:33;;;;;;;14.02;2.38;;;;;;;11.69;58.19;102297.34;5048561;28;20074;-63
2024/02/17 01:29:00;;;;;;;15.25;3.05;;;;;;;11.57;58.77;102304.25;5081636;28;20064;-64
2024/02/17 01:31:28;;;;;;;13.35;2.03;;;;;;;11.24;59.96;102314.81;5048333;28;20056;-65
2024/02/17 01:33:55;;;;;;;16.83;2.70;;;;;;;11.69;59.62;102315.84;5047750;28;20493;-65
2024/02/17 01:36:23;;;;;;;14.57;2.15;;;;;;;11.91;57.35;102311.59;5049367;28;20481;-64
2024/02/17 01:38:50;;;;;;;13.13;2.45;;;;;;;11.97;56.92;102327.03;5062480;28;20057;-64
2024/02/17 01:41:18;;;;;;;10.90;2.15;;;;;;;11.70;56.52;102320.28;5047590;28;20053;-65
2024/02/17 01:43:46;;;;;;;11.70;2.53;;;;;;;11.43;57.35;102323.34;5047791;28;20567;-63
2024/02/17 01:46:13;;;;;;;11.88;2.03;;;;;;;11.41;58.29;102331.09;5047984;28;20057;-64
2024/02/17 01:48:42;;;;;;;11.70;2.15;;;;;;;11.50;56.39;102336.84;5048034;28;20057;-65
2024/02/17 01:51:11;;;;;;;14.10;1.85;;;;;;;11.29;57.18;102339.66;5047509;28;20049;-64
2024/02/17 01:53:40;;;;;;;14.77;2.17;;;;;;;11.49;57.50;102336.00;5064771;28;20057;-63
2024/02/17 01:56:09;;;;;;;14.73;2.63;;;;;;;11.52;56.94;102335.47;5081761;28;20068;-66
2024/02/17 01:58:37;;;;;;;15.70;3.08;;;;;;;11.14;58.06;102338.88;5081419;28;20495;-64
2024/02/17 02:01:04;;;;;;;13.25;1.80;;;;;;;11.14;58.31;102350.72;5080791;28;20061;-64
2024/02/17 02:03:32;;;;;;;17.17;2.45;;;;;;;11.53;57.47;102347.31;5058603;28;20094;-63
2024/02/17 02:06:00;;;;;;;15.10;2.58;;;;;;;11.42;58.00;102346.50;5048864;28;20060;-65
2024/02/17 02:08:27;;;;;;;13.95;2.65;;;;;;;11.47;58.02;102351.22;5046623;28;20049;-63
2024/02/17 02:10:55;;;;;;;15.93;2.70;;;;;;;11.63;58.06;102352.84;5044563;28;20060;-64
2024/02/17 02:13:23;;;;;;;12.38;2.25;;;;;;;11.61;57.89;102353.09;5048748;28;20053;-64
2024/02/17 02:15:50;;;;;;;10.75;2.10;;;;;;;11.49;57.59;102349.81;5046359;28;20060;-64
2024/02/17 02:18:21;;;;;;;14.20;2.15;;;;;;;11.20;58.80;102360.63;5048681;28;20064;-63
2024/02/17 02:20:49;;;;;;;13.73;2.28;;;;;;;11.30;58.42;102360.63;5048364;28;20413;-65
2024/02/17 02:23:17;;;;;;;18.05;2.17;;;;;;;10.91;58.95;102364.25;5048627;28;20053;-63
2024/02/17 02:25:52;;;;;;;12.63;2.03;;;;;;;11.09;58.83;102367.25;5048727;28;20060;-64
2024/02/17 02:28:21;;;;;;;13.00;2.58;;;;;;;11.11;59.34;102367.81;5047921;28;20063;-64
2024/02/17 02:30:50;;;;;;;14.00;2.55;;;;;;;11.40;58.75;102370.00;5048144;28;20064;-65
2024/02/17 02:33:18;;;;;;;14.50;2.78;;;;;;;11.45;58.00;102369.97;5048255;28;20053;-64
2024/02/17 02:35:46;;;;;;;14.57;2.35;;;;;;;11.23;58.98;102373.03;5047352;28;20800;-65
2024/02/17 02:38:13;;;;;;;15.05;2.10;;;;;;;11.37;58.50;102368.59;5048688;28;20048;-65
2024/02/17 02:40:41;;;;;;;12.35;2.85;;;;;;;11.50;57.73;102364.44;5047211;28;20064;-64
2024/02/17 02:43:08;;;;;;;16.70;2.85;;;;;;;11.31;57.98;102376.06;5047164;28;20052;-65
2024/02/17 02:45:37;;;;;;;13.32;2.08;;;;;;;10.95;58.95;102374.44;5048929;28;20060;-65
2024/02/17 02:48:05;;;;;;;7.93;1.67;;;;;;;11.16;59.21;102381.59;5049386;28;20147;-64
2024/02/17 02:50:32;;;;;;;9.77;1.98;;;;;;;10.87;59.17;102371.41;5048341;28;20056;-63
2024/02/17 02:53:00;;;;;;;13.90;2.03;;;;;;;11.06;59.18;102381.59;5047441;28;20041;-65
2024/02/17 02:55:27;;;;;;;16.65;2.10;;;;;;;10.93;59.19;102375.81;5047085;28;20056;-66
2024/02/17 02:57:54;;;;;;;18.50;2.30;;;;;;;10.90;59.07;102379.94;5046827;28;20473;-65
2024/02/17 03:00:22;;;;;;;15.40;2.83;;;;;;;11.01;58.83;102378.03;5046452;28;20056;-65
2024/02/17 03:02:49;;;;;;;11.65;2.17;;;;;;;11.06;58.82;102380.78;5078644;28;20490;-65
2024/02/17 03:05:17;;;;;;;14.63;2.92;;;;;;;11.09;59.04;102381.03;5036228;28;20061;-64
2024/02/17 03:07:44;;;;;;;12.88;1.85;;;;;;;11.26;58.26;102375.25;5062888;28;20472;-65
2024/02/17 03:10:12;;;;;;;13.55;1.85;;;;;;;11.47;58.11;102373.28;5046658;28;20049;-64
2024/02/17 03:12:39;;;;;;;13.02;2.33;;;;;;;11.33;57.76;102382.13;5047374;28;20152;-65
2024/02/17 03:15:07;;;;;;;11.65;2.20;;;;;;;11.36;58.11;102372.47;5046699;28;20045;-63
2024/02/17 03:17:36;;;;;;;22.83;2.60;;;;;;;11.37;57.79;102384.34;5045655;28;20057;-64
2024/02/17 03:20:04;;;;;;;11.45;2.10;;;;;;;11.45;58.54;102376.34;5046868;28;20049;-62
2024/02/17 03:22:32;;;;;;;13.00;2.20;;;;;;;11.58;58.02;102372.13;5045657;28;20052;-65
2024/02/17 03:24:59;;;;;;;14.88;2.25;;;;;;;11.55;57.40;102381.81;5047806;28;20056;-63
2024/02/17 03:27:27;;;;;;;8.82;1.90;;;;;;;11.20;58.68;102377.19;5078626;28;20052;-64
2024/02/17 03:29:55;;;;;;;15.43;2.40;;;;;;;11.60;58.12;102379.03;5058024;28;20061;-64
2024/02/17 03:32:22;;;;;;;15.55;2.40;;;;;;;11.56;57.87;102380.69;5027689;28;20052;-63
2024/02/17 03:34:51;;;;;;;12.35;2.25;;;;;;;11.80;57.89;102372.69;5027459;28;20064;-63
2024/02/17 03:37:19;;;;;;;14.30;2.10;;;;;;;11.76;57.59;102377.09;5027753;28;20053;-64
2024/02/17 03:39:48;;;;;;;14.82;2.35;;;;;;;11.74;57.51;102377.38;5071268;28;20068;-65
2024/02/17 03:42:15;;;;;;;12.70;2.30;;;;;;;11.30;58.30;102379.94;5045480;28;20060;-64
2024/02/17 03:44:43;;;;;;;13.60;1.80;;;;;;;11.27;59.00;102377.72;5047453;28;20084;-64
2024/02/17 03:47:14;;;;;;;13.13;2.75;;;;;;;11.30;59.00;102381.84;5048502;28;20060;-64
2024/02/17 03:49:41;;;;;;;14.00;1.88;;;;;;;11.37;58.86;102387.09;5048746;28;20052;-64
2024/02/17 03:52:08;;;;;;;9.60;2.08;;;;;;;11.25;59.40;102382.69;5061243;28;20053;-63
2024/02/17 03:54:36;;;;;;;12.32;2.22;;;;;;;11.35;59.50;102379.91;5046345;28;20057;-64
2024/02/17 03:57:04;;;;;;;12.02;2.17;;;;;;;11.47;59.20;102384.31;5046047;28;20048;-64
2024/02/17 03:59:31;;;;;;;11.15;2.08;;;;;;;11.45;59.12;102378.25;5045695;28;20053;-65
2024/02/17 04:01:59;;;;;;;13.75;2.10;;;;;;;11.69;58.53;102390.38;5047189;28;20053;-64
2024/02/17 04:04:26;;;;;;;15.82;2.30;;;;;;;11.56;58.47;102388.19;5046448;28;20052;-66
2024/02/17 04:06:55;;;;;;;15.23;3.00;;;;;;;11.78;58.62;102386.78;5017616;28;20057;-65
2024/02/17 04:09:22;;;;;;;15.23;2.38;;;;;;;11.62;58.10;102396.16;5042535;28;20067;-64
2024/02/17 04:11:51;;;;;;;9.88;2.15;;;;;;;11.47;58.91;102404.47;5044586;28;20052;-63
2024/02/17 04:14:19;;;;;;;13.10;2.30;;;;;;;11.26;60.17;102409.16;5045731;28;20052;-64
2024/02/17 04:16:46;;;;;;;17.27;2.33;;;;;;;11.21;59.62;102409.16;5042767;28;20069;-64
2024/02/17 04:19:14;;;;;;;12.98;1.90;;;;;;;11.18;59.79;102398.69;5047585;28;20056;-64
2024/02/17 04:21:41;;;;;;;11.43;1.90;;;;;;;11.32;59.27;102402.56;5051152;28;20076;-64
2024/02/17 04:24:09;;;;;;;11.45;2.15;;;;;;;11.35;59.71;102404.75;5048777;28;20711;-64
2024/02/17 04:26:36;;;;;;;13.32;2.10;;;;;;;11.46;59.08;102400.03;5044014;28;20068;-65
2024/02/17 04:29:03;;;;;;;16.35;2.45;;;;;;;11.58;58.98;102411.59;5049047;28;20057;-64
2024/02/17 04:31:31;;;;;;;13.25;2.30;;;;;;;11.69;59.15;102416.03;5050148;28;20716;-65
2024/02/17 04:33:58;;;;;;;12.38;2.10;;;;;;;11.73;58.43;102421.84;5049558;28;20426;-64
2024/02/17 04:36:26;;;;;;;11.35;2.50;;;;;;;11.70;59.20;102427.94;5051989;28;20059;-64
2024/02/17 04:38:53;;;;;;;15.00;2.20;;;;;;;11.72;58.66;102422.91;5042228;28;20053;-65
2024/02/17 04:41:21;;;;;;;13.48;2.72;;;;;;;11.71;58.59;102430.41;5049453;28;20061;-64
2024/02/17 04:43:48;;;;;;;16.15;2.30;;;;;;;11.77;58.53;102432.03;5030554;28;20054;-65
2024/02/17 04:46:15;;;;;;;14.77;1.98;;;;;;;11.42;59.04;102432.03;5030425;28;20507;-65
2024/02/17 04:48:42;;;;;;;15.13;2.47;;;;;;;11.33;59.74;102437.31;5029556;28;20064;-65
2024/02/17 04:51:10;;;;;;;10.30;2.05;;;;;;;11.49;59.74;102445.59;5047084;28;20063;-65
2024/02/17 04:53:38;;;;;;;13.73;2.00;;;;;;;11.62;59.08;102451.34;5046938;28;20049;-64
2024/02/17 04:56:05;;;;;;;22.63;3.42;;;;;;;11.67;58.80;102453.31;5049197;28;20396;-65
2024/02/17 04:58:32;;;;;;;11.38;2.40;;;;;;;11.75;58.38;102452.75;5048054;28;20053;-64
2024/02/17 05:01:00;;;;;;;10.07;2.47;;;;;;;11.78;57.76;102460.47;5047434;28;20049;-65
2024/02/17 05:03:27;;;;;;;15.88;2.28;;;;;;;11.53;58.84;102457.69;5048001;28;20049;-64
2024/02/17 05:05:54;;;;;;;11.40;2.95;;;;;;;11.62;58.59;102465.16;5049429;28;20049;-65
2024/02/17 05:08:22;;;;;;;10.95;2.20;;;;;;;11.71;58.39;102466.28;5050099;28;20052;-64
2024/02/17 05:10:49;;;;;;;17.55;2.30;;;;;;;11.60;59.10;102466.53;5049118;28;20049;-64
2024/02/17 05:13:17;;;;;;;15.60;2.30;;;;;;;11.72;58.94;102467.09;5048978;28;20096;-64
2024/02/17 05:15:45;;;;;;;13.57;2.00;;;;;;;11.90;58.14;102475.63;5048795;28;20594;-64
2024/02/17 05:18:12;;;;;;;14.10;2.67;;;;;;;11.73;58.62;102468.75;5050385;28;20041;-65
2024/02/17 05:20:39;;;;;;;12.65;2.10;;;;;;;11.83;58.12;102479.78;5049890;28;20063;-63
2024/02/17 05:23:07;;;;;;;19.10;2.90;;;;;;;11.55;59.07;102475.66;5048555;28;20041;-63
2024/02/17 05:25:34;;;;;;;13.52;2.03;;;;;;;11.81;nan;102477.31;5060917;28;20058;-64
2024/02/17 05:28:01;;;;;;;15.80;2.67;;;;;;;11.60;58.50;102486.69;5032723;28;20508;-65
2024/02/17 05:30:28;;;;;;;9.85;1.70;;;;;;;11.73;58.67;102488.09;5049946;28;20567;-64
2024/02/17 05:32:56;;;;;;;10.45;2.13;;;;;;;11.72;58.50;102483.66;5051016;27;20057;-63
2024/02/17 05:35:24;;;;;;;11.93;1.88;;;;;;;12.02;57.45;102494.66;5049294;28;20132;-64
2024/02/17 05:37:51;;;;;;;9.48;2.22;;;;;;;12.01;57.41;102493.81;5049204;28;20044;-64
2024/02/17 05:40:19;;;;;;;11.27;2.28;;;;;;;12.39;56.88;102493.16;5046015;28;20056;-64
2024/02/17 05:42:46;;;;;;;17.65;2.13;;;;;;;12.30;56.71;102482.97;5048754;28;20571;-64
2024/02/17 05:45:13;;;;;;;15.30;2.40;;;;;;;12.29;56.95;102486.84;5047644;28;20064;-65
2024/02/17 05:47:41;;;;;;;11.40;2.33;;;;;;;12.24;56.90;102487.69;5049245;28;20627;-64
2024/02/17 05:50:09;;;;;;;10.27;2.30;;;;;;;12.22;57.27;102489.09;5048373;28;20060;-65
2024/02/17 05:52:38;;;;;;;8.55;1.88;;;;;;;12.26;56.84;102491.00;5063723;28;20053;-64
2024/02/17 05:55:06;;;;;;;10.15;1.88;;;;;;;12.41;56.51;102496.44;5047518;28;20057;-63
2024/02/17 05:57:33;;;;;;;13.80;2.13;;;;;;;12.58;56.20;102490.59;5047208;28;20049;-65
2024/02/17 06:00:00;;;;;;;11.38;2.15;;;;;;;12.39;56.41;102501.47;5048381;28;20076;-64
2024/02/17 06:02:28;;;;;;;11.98;2.22;;;;;;;12.02;57.79;102505.69;5048565;28;20044;-64
2024/02/17 06:04:55;;;;;;;10.65;2.00;;;;;;;12.22;57.54;102500.13;5080615;28;20567;-64
2024/02/17 06:07:22;;;;;;;10.98;2.75;;;;;;;12.36;57.23;102506.72;5047532;28;20057;-64
2024/02/17 06:09:50;;;;;;;10.60;2.55;;;;;;;12.38;57.51;102505.31;5047406;28;20061;-63
2024/02/17 06:12:17;;;;;;;13.90;2.55;;;;;;;12.43;57.00;102513.59;5047840;28;20611;-65
2024/02/17 06:14:45;;;;;;;10.27;2.08;;;;;;;12.35;57.40;102513.34;5049726;28;20049;-64
2024/02/17 06:17:22;;;;;;;10.43;1.92;;;;;;;12.39;57.17;102520.81;5048316;28;20457;-64
2024/02/17 06:22:35;;;;;;;15.20;2.78;;;;;;;12.23;57.26;102543.22;5040704;28;20053;-65
2024/02/17 06:25:04;;;;;;;13.40;2.30;;;;;;;12.21;57.66;102543.50;5049097;28;20064;-64
2024/02/17 06:27:31;;;;;;;13.43;2.38;;;;;;;12.29;57.53;102553.97;5063168;28;20057;-65
2024/02/17 06:29:58;;;;;;;17.52;2.70;;;;;;;12.25;57.50;102563.94;5060066;28;20053;-63
2024/02/17 06:32:26;;;;;;;11.85;2.17;;;;;;;12.23;57.37;102570.84;5048210;28;20061;-64
2024/02/17 06:34:53;;;;;;;15.63;2.50;;;;;;;11.84;58.00;102572.53;4998761;28;20057;-64
2024/02/17 06:37:23;;;;;;;10.18;2.25;;;;;;;12.33;57.08;102582.72;5029729;28;20087;-65
2024/02/17 06:39:50;;;;;;;14.73;2.65;;;;;;;12.20;57.75;102586.03;5029643;28;20129;-64
2024/02/17 06:42:18;;;;;;;15.63;2.88;;;;;;;12.25;57.76;102594.34;5046550;28;20048;-64
2024/02/17 06:44:45;;;;;;;16.08;3.03;;;;;;;12.43;57.32;102590.13;5047129;28;20044;-64
2024/02/17 06:47:12;;;;;;;10.30;2.50;;;;;;;12.52;57.16;102598.69;5045846;28;20049;-64
2024/02/17 06:49:39;;;;;;;12.02;2.42;;;;;;;12.58;56.98;102597.56;5045987;28;20075;-65
2024/02/17 06:52:07;;;;;;;13.98;1.77;;;;;;;12.50;57.17;102604.47;5046316;28;20064;-64
2024/02/17 06:54:35;;;;;;;18.40;2.70;;;;;;;12.34;57.53;102616.72;5021383;28;20053;-65
2024/02/17 06:57:02;;;;;;;14.23;2.28;;;;;;;12.48;57.44;102614.19;5043737;28;20053;-64
2024/02/17 06:59:30;;;;;;;14.77;2.28;;;;;;;12.20;57.45;102621.16;5047184;28;20061;-64
2024/02/17 07:01:57;;;;;;;14.98;2.40;;;;;;;12.22;58.10;102625.28;5045847;28;20112;-64
2024/02/17 07:04:25;;;;;;;11.77;2.33;;;;;;;12.34;57.84;102625.00;5048316;28;20056;-63
2024/02/17 07:06:52;;;;;;;13.27;2.13;;;;;;;12.31;57.74;102631.06;5044918;28;20091;-64
2024/02/17 07:09:21;;;;;;;9.75;2.08;;;;;;;12.29;58.17;102631.34;5048336;28;20053;-65
2024/02/17 07:11:48;;;;;;;12.68;2.47;;;;;;;12.53;57.09;102633.50;5047119;28;20049;-64
2024/02/17 07:14:15;;;;;;;13.32;2.00;;;;;;;13.04;56.33;102632.28;5047666;28;20067;-63
2024/02/17 07:16:43;;;;;;;11.52;2.65;;;;;;;12.83;56.29;102631.47;5046784;28;20045;-62
2024/02/17 07:19:10;;;;;;;13.00;2.22;;;;;;;12.77;56.83;102634.56;5048707;28;20052;-64
2024/02/17 07:21:37;;;;;;;11.82;2.35;;;;;;;12.57;57.06;102635.44;5049425;28;20053;-64
2024/02/17 07:24:05;;;;;;;13.43;2.35;;;;;;;12.51;57.84;102639.31;5049061;28;20551;-64
2024/02/17 07:26:32;;;;;;;13.50;2.65;;;;;;;12.71;57.33;102636.50;5046992;28;20795;-63
2024/02/17 07:29:00;;;;;;;12.50;1.92;;;;;;;12.80;57.11;102639.50;5044044;28;20061;-64
2024/02/17 07:31:31;;;;;;;11.45;2.30;;;;;;;12.76;57.60;102642.00;5047127;28;20053;-63
2024/02/17 07:33:59;;;;;;;12.98;2.20;;;;;;;12.71;57.46;102647.56;5028545;28;20045;-65
2024/02/17 07:36:27;;;;;;;11.57;2.10;;;;;;;12.61;57.99;102653.13;5046664;28;20469;-64
2024/02/17 07:38:54;;;;;;;13.57;2.47;;;;;;;12.62;58.57;102651.19;5045951;28;20079;-63
2024/02/17 07:41:22;;;;;;;11.23;2.25;;;;;;;12.65;58.34;102657.00;5046518;28;20578;-63
2024/02/17 07:43:52;;;;;;;10.63;2.50;;;;;;;12.65;58.00;102645.94;5032335;28;20053;-65
2024/02/17 07:46:19;;;;;;;;;;;;;;;12.67;57.97;102660.31;5047966;28;20056;-65
2024/02/17 07:48:50;;;;;;;13.33;2.13;;;;;;;12.77;58.02;102659.44;5028713;28;19967;-65
2024/02/17 07:51:17;;;;;;;10.75;2.70;;;;;;;12.79;57.87;102652.53;5045647;28;20053;-65
2024/02/17 07:53:44;;;;;;;12.25;2.40;;;;;;;12.66;58.55;102646.78;5040783;28;20064;-65
2024/02/17 07:56:12;;;;;;;12.43;2.17;;;;;;;12.71;58.46;102658.63;5040536;28;20049;-64
2024/02/17 07:58:40;;;;;;;16.60;2.85;;;;;;;12.75;58.38;102651.44;5054937;28;20081;-65
2024/02/17 08:01:07;;;;;;;10.52;1.90;;;;;;;12.73;57.96;102656.41;5051780;28;20663;-63
2024/02/17 08:03:35;;;;;;;12.40;2.10;;;;;;;12.65;58.01;102654.22;5050807;28;20052;-64
2024/02/17 08:06:02;;;;;;;12.45;2.13;;;;;;;12.64;57.95;102663.59;5082281;28;20067;-66
2024/02/17 08:08:30;;;;;;;11.90;2.30;;;;;;;12.72;57.71;102674.13;5050412;28;20071;-66
2024/02/17 08:10:57;;;;;;;12.40;2.10;;;;;;;12.76;57.81;102677.16;5048905;28;20075;-68
2024/02/17 08:13:25;;;;;;;13.05;2.88;;;;;;;12.85;57.78;102689.31;5050630;28;20063;-66
2024/02/17 08:15:53;;;;;;;11.05;2.08;;;;;;;12.90;57.12;102684.56;5083449;28;20057;-65
2024/02/17 08:18:20;;;;;;;14.00;2.47;;;;;;;13.00;56.83;102675.41;5049927;28;20041;-66
2024/02/17 08:20:49;;;;;;;11.43;2.40;;;;;;;12.97;57.11;102682.31;5066535;28;20342;-65
2024/02/17 08:23:16;;;;;;;11.98;2.40;;;;;;;12.99;57.08;102691.16;5040371;28;20049;-64
2024/02/17 08:25:44;;;;;;;14.43;2.60;;;;;;;12.97;57.25;102698.13;5046650;28;20088;-64
2024/02/17 08:28:11;;;;;;;9.77;2.05;;;;;;;13.00;56.84;102708.59;5050738;28;20051;-67
2024/02/17 08:30:39;;;;;;;11.88;2.40;;;;;;;13.01;57.04;102705.56;5052393;28;20060;-64
2024/02/17 08:33:07;;;;;;;11.45;2.42;;;;;;;12.96;57.34;102711.09;5046409;28;20067;-65
2024/02/17 08:35:35;;;;;;;11.85;2.15;;;;;;;13.00;57.04;102711.38;5054712;28;20420;-63
2024/02/17 08:38:03;;;;;;;17.15;2.67;;;;;;;13.18;57.18;102719.91;5040136;28;20056;-64
2024/02/17 08:40:31;;;;;;;12.15;2.15;;;;;;;13.26;57.06;102722.13;5047721;28;20057;-64
2024/02/17 08:42:58;;;;;;;12.82;2.53;;;;;;;13.28;56.86;102732.91;5077076;28;20069;-63
2024/02/17 08:45:26;;;;;;;13.82;3.15;;;;;;;13.05;57.03;102728.81;5048581;28;20052;-64
2024/02/17 08:47:54;;;;;;;13.75;2.95;;;;;;;13.25;56.97;102736.25;5082276;28;20044;-64
2024/02/17 08:50:21;;;;;;;19.95;8.90;;;;;;;13.27;57.27;102734.84;5051820;28;20066;-64
2024/02/17 08:52:49;;;;;;;23.65;7.57;;;;;;;13.26;56.95;102741.50;5049937;28;20060;-64
2024/02/17 08:55:16;;;;;;;17.58;6.40;;;;;;;13.52;56.68;102745.81;5051795;28;20064;-64
2024/02/17 08:57:44;;;;;;;12.68;2.47;;;;;;;13.47;56.29;102745.84;5021293;28;20060;-64
2024/02/17 09:00:12;;;;;;;13.57;2.75;;;;;;;13.61;56.15;102753.50;5054204;28;20048;-65
2024/02/17 09:02:39;;;;;;;10.57;2.67;;;;;;;13.70;55.68;102752.66;5050533;28;20053;-64
2024/02/17 09:05:08;;;;;;;16.80;2.70;;;;;;;13.79;55.24;102750.09;5051399;28;20037;-63
2024/02/17 09:07:36;;;;;;;12.50;2.70;;;;;;;13.95;59.21;102746.94;5050757;28;20052;-65
2024/02/17 09:10:03;;;;;;;14.77;2.33;;;;;;;13.95;58.12;102751.66;5032852;28;20655;-63
2024/02/17 09:12:31;;;;;;;10.90;1.88;;;;;;;13.83;55.04;102753.94;5044861;28;20049;-63
2024/02/17 09:14:59;;;;;;;15.38;2.30;;;;;;;13.87;54.83;102752.25;5050644;28;20041;-64
2024/02/17 09:17:28;;;;;;;11.63;2.83;;;;;;;13.70;54.60;102744.34;5046545;28;20048;-65
2024/02/17 09:19:55;;;;;;;14.02;2.33;;;;;;;13.67;55.06;102749.63;5048896;28;20052;-65
2024/02/17 09:22:22;;;;;;;10.63;1.80;;;;;;;13.74;54.71;102744.59;5049008;28;20048;-65
2024/02/17 09:24:53;;;;;;;14.10;3.05;;;;;;;13.73;54.78;102748.47;5048498;28;20048;-64
2024/02/17 09:27:20;;;;;;;9.40;2.13;;;;;;;13.70;54.05;102749.88;5050111;28;20049;-64
2024/02/17 09:29:48;;;;;;;15.43;2.95;;;;;;;13.84;54.04;102755.63;5050113;28;20041;-64
2024/02/17 09:32:15;;;;;;;8.95;2.65;;;;;;;13.70;54.38;102743.50;5049785;28;20060;-66
2024/02/17 09:34:43;;;;;;;13.48;2.28;;;;;;;13.77;53.92;102749.56;5046805;28;20056;-64
2024/02/17 09:37:11;;;;;;;13.13;1.90;;;;;;;13.98;57.77;102751.09;5045797;28;20072;-64
2024/02/17 09:39:40;;;;;;;12.48;2.20;;;;;;;13.87;55.67;102749.50;5049521;28;20427;-63
2024/02/17 09:42:07;;;;;;;12.10;2.13;;;;;;;13.63;55.16;102748.53;5044635;28;20041;-63
2024/02/17 09:44:35;;;;;;;11.05;2.58;;;;;;;13.88;58.10;102740.09;5031409;28;20053;-64
2024/02/17 09:47:03;;;;;;;10.70;1.88;;;;;;;14.06;55.81;102753.25;5051369;28;20045;-63
2024/02/17 09:49:34;;;;;;;10.40;2.17;;;;;;;14.02;56.26;102749.38;5049371;28;20083;-63
2024/02/17 09:52:02;;;;;;;13.32;2.58;;;;;;;14.32;56.34;102750.03;5047792;28;20366;-66
2024/02/17 09:54:30;;;;;;;12.05;2.25;;;;;;;14.14;55.83;102756.22;5054161;28;20049;-64
2024/02/17 09:56:58;;;;;;;11.20;2.58;;;;;;;14.31;55.06;102750.34;5048281;28;20874;-67
2024/02/17 09:59:26;;;;;;;10.80;2.20;;;;;;;13.92;53.31;102760.53;5050709;28;20053;-66
2024/02/17 10:01:53;;;;;;;16.30;2.25;;;;;;;14.05;52.59;102757.16;5043034;28;20123;-64
2024/02/17 10:04:21;;;;;;;9.82;2.05;;;;;;;14.00;52.71;102760.75;5045051;28;20405;-64
2024/02/17 10:06:59;;;;;;;10.70;2.13;;;;;;;13.78;52.69;102760.34;5040418;28;20400;-65
2024/02/17 10:09:27;;;;;;;11.25;2.03;;;;;;;13.54;53.53;102764.91;5042398;28;20061;-64
2024/02/17 10:11:58;;;;;;;10.43;2.10;;;;;;;13.71;53.13;102772.84;5042854;28;20053;-65
2024/02/17 10:14:27;;;;;;;9.93;2.35;;;;;;;13.62;52.95;102769.00;5043887;28;20063;-65
2024/02/17 10:16:58;;;;;;;13.00;2.45;;;;;;;13.46;53.70;102774.63;5042518;28;20041;-65
2024/02/17 10:19:28;;;;;;;9.68;2.28;;;;;;;13.44;54.18;102763.00;5045073;28;20064;-64
2024/02/17 10:21:55;;;;;;;9.43;2.30;;;;;;;13.77;53.56;102767.00;5043682;28;20059;-64
2024/02/17 10:24:23;;;;;;;12.27;2.15;;;;;;;13.94;53.49;102767.47;5045994;28;20049;-65
2024/02/17 10:26:54;;;;;;;10.18;1.83;;;;;;;13.71;52.66;102776.44;5046193;27;20050;-67
2024/02/17 10:29:22;;;;;;;12.15;2.00;;;;;;;13.76;52.62;102781.13;5047378;28;20056;-64
2024/02/17 10:31:54;;;;;;;14.70;2.67;;;;;;;13.99;52.24;102774.91;5041350;28;20053;-66
2024/02/17 10:34:54;;;;;;;10.85;2.00;;;;;;;13.53;53.72;102777.91;5042211;28;20067;-65
2024/02/17 10:37:40;;;;;;;13.48;2.30;;;;;;;13.61;52.95;102783.97;5018133;28;20049;-66
2024/02/17 10:40:31;;;;;;;14.25;2.10;;;;;;;13.94;52.31;102780.47;5042032;28;20057;-65
2024/02/17 10:43:01;;;;;;;9.55;1.67;;;;;;;13.98;51.93;102787.91;5041520;28;20612;-65
2024/02/17 10:45:29;;;;;;;13.60;1.58;;;;;;;13.94;51.92;102780.47;5048475;28;20527;-65
2024/02/17 10:48:05;;;;;;;10.52;2.10;;;;;;;14.20;51.73;102784.75;5042009;28;20056;-66
2024/02/17 10:50:35;;;;;;;14.65;2.97;;;;;;;14.49;50.63;102791.22;5040213;28;20428;-64
2024/02/17 10:53:09;;;;;;;12.75;2.90;;;;;;;14.20;52.02;102790.28;5059314;28;20049;-66
2024/02/17 10:55:38;;;;;;;10.18;2.03;;;;;;;13.96;52.00;102789.34;5047051;28;20590;-65
2024/02/17 10:58:10;;;;;;;11.20;2.10;;;;;;;13.98;51.96;102796.22;5046561;28;20061;-67
2024/02/17 11:00:45;;;;;;;13.95;2.65;;;;;;;14.27;51.49;102788.91;5079898;28;20044;-64
2024/02/17 11:03:16;;;;;;;14.50;2.90;;;;;;;14.42;50.81;102791.53;5038319;28;20049;-67
2024/02/17 11:05:44;;;;;;;;;;;;;;;14.42;51.27;102796.25;5045827;28;20699;-64
2024/02/17 11:08:12;;;;;;;15.48;2.72;;;;;;;14.17;51.93;102788.94;5044041;28;19924;-67
2024/02/17 11:10:43;;;;;;;9.75;2.28;;;;;;;14.19;51.35;102789.44;5046139;28;20164;-67
2024/02/17 11:13:26;;;;;;;10.95;2.70;;;;;;;14.48;50.98;102795.94;5045064;28;20056;-69
2024/02/17 11:16:00;;;;;;;9.00;1.90;;;;;;;14.51;50.60;102789.81;5045845;28;20052;-67
2024/02/17 11:18:54;;;;;;;9.95;2.03;;;;;;;14.65;49.69;102790.81;5044768;28;20045;-65
2024/02/17 11:21:30;;;;;;;12.50;2.15;;;;;;;14.20;51.16;102782.81;5046482;28;20443;-66
2024/02/17 11:24:00;;;;;;;10.45;2.22;;;;;;;14.31;50.89;102789.16;5049463;28;20105;-66
2024/02/17 11:26:30;;;;;;;13.65;2.10;;;;;;;14.40;50.72;102792.97;5045106;28;20451;-67